Time;durP1;ratioP1;P1;durP2;ratioP2;P2;SDS_P1;SDS_P2;PMS_P1;PMS_P2;Temp;Humidity;BMP_temperature;BMP_pressure;BME280_temperature;BME280_humidity;BME280_pressure;Samples;Min_cycle;Max_cycle;Signal;HPM_P1;HPM_P2
2022/03/12 00:00:46;;;;;;;10.88;6.72;;;7.60;52.50;;;;;;4995241;28;20046;-70
2022/03/12 00:03:13;;;;;;;12.38;7.90;;;7.60;52.50;;;;;;5005413;28;20490;-70
2022/03/12 00:05:47;;;;;;;13.85;8.02;;;7.60;52.10;;;;;;5005005;28;20053;-70
2022/03/12 00:08:12;;;;;;;10.73;7.72;;;7.60;52.30;;;;;;5002492;28;20105;-70
2022/03/12 00:10:41;;;;;;;11.43;7.97;;;7.50;52.50;;;;;;4986806;28;20046;-70
2022/03/12 00:13:07;;;;;;;12.98;8.02;;;7.50;52.80;;;;;;5002904;28;20058;-70
2022/03/12 00:15:33;;;;;;;15.18;7.88;;;7.50;52.90;;;;;;5005007;28;20050;-71
2022/03/12 00:17:59;;;;;;;11.45;8.05;;;7.50;52.80;;;;;;5004925;28;20055;-71
2022/03/12 00:20:26;;;;;;;9.48;7.43;;;7.50;52.70;;;;;;4986677;28;20121;-71
2022/03/12 00:22:52;;;;;;;13.63;8.38;;;7.60;52.60;;;;;;5004353;28;20038;-71
2022/03/12 00:25:22;;;;;;;12.07;8.02;;;7.60;52.70;;;;;;5005368;28;20078;-71
2022/03/12 00:27:48;;;;;;;15.13;8.77;;;7.50;52.70;;;;;;5007102;28;20050;-71
2022/03/12 00:30:20;;;;;;;11.48;8.25;;;7.50;53.00;;;;;;5007111;28;20061;-71
2022/03/12 00:32:47;;;;;;;10.80;7.45;;;7.40;53.00;;;;;;5006861;28;20054;-72
2022/03/12 00:35:18;;;;;;;11.55;7.97;;;7.30;53.20;;;;;;5000891;28;20050;-71
2022/03/12 00:37:44;;;;;;;;;;;7.30;54.20;;;;;;5007462;28;20038;-71
2022/03/12 00:40:10;;;;;;;12.65;8.40;;;7.30;53.70;;;;;;4999806;28;19922;-71
2022/03/12 00:42:36;;;;;;;13.27;7.63;;;7.20;54.20;;;;;;5004577;28;20054;-71
2022/03/12 00:45:02;;;;;;;14.13;8.05;;;7.10;54.50;;;;;;4996242;28;20046;-71
2022/03/12 00:47:28;;;;;;;14.80;9.50;;;7.10;54.70;;;;;;5000388;28;20042;-72
2022/03/12 00:49:54;;;;;;;13.85;7.75;;;7.10;54.80;;;;;;5006864;28;20040;-71
2022/03/12 00:52:20;;;;;;;11.02;7.40;;;7.10;55.00;;;;;;5003483;28;20494;-71
2022/03/12 00:54:46;;;;;;;12.45;7.95;;;7.10;54.60;;;;;;5007670;28;20062;-72
2022/03/12 00:57:13;;;;;;;10.40;7.70;;;7.20;54.20;;;;;;4999077;28;20055;-73
2022/03/12 00:59:40;;;;;;;14.38;7.90;;;7.20;54.20;;;;;;4999935;28;20414;-73
2022/03/12 01:02:08;;;;;;;12.60;7.82;;;7.10;54.30;;;;;;5006378;28;20161;-72
2022/03/12 01:04:33;;;;;;;10.52;7.60;;;7.00;54.50;;;;;;5007614;28;20050;-72
2022/03/12 01:06:59;;;;;;;14.98;7.78;;;7.10;54.60;;;;;;4997121;28;20100;-72
2022/03/12 01:09:25;;;;;;;10.52;7.70;;;7.00;54.90;;;;;;5006118;28;20089;-72
2022/03/12 01:11:51;;;;;;;11.82;8.15;;;7.00;54.80;;;;;;5006236;28;20046;-72
2022/03/12 01:14:17;;;;;;;11.55;7.85;;;7.00;55.60;;;;;;5006196;28;20105;-72
2022/03/12 01:16:43;;;;;;;11.65;8.93;;;7.10;54.60;;;;;;5005848;28;20049;-72
2022/03/12 01:19:09;;;;;;;11.63;8.38;;;7.00;55.10;;;;;;5006879;28;20069;-72
2022/03/12 01:21:34;;;;;;;12.07;7.70;;;6.90;55.20;;;;;;5006825;28;20039;-72
2022/03/12 01:24:00;;;;;;;13.50;8.23;;;6.90;55.20;;;;;;5006366;28;20047;-72
2022/03/12 01:26:26;;;;;;;11.57;8.77;;;6.90;55.50;;;;;;5005910;28;20109;-72
2022/03/12 01:28:52;;;;;;;13.88;8.13;;;6.90;55.50;;;;;;4990849;28;20069;-72
2022/03/12 01:31:19;;;;;;;12.15;8.20;;;7.00;55.30;;;;;;5006270;28;20138;-72
2022/03/12 01:33:45;;;;;;;12.77;7.75;;;7.00;55.00;;;;;;4989763;28;20054;-72
2022/03/12 01:36:13;;;;;;;14.35;8.60;;;6.90;55.40;;;;;;5006337;28;20057;-72
2022/03/12 01:38:50;;;;;;;10.75;8.07;;;6.90;55.50;;;;;;5007548;28;20050;-72
2022/03/12 01:41:21;;;;;;;15.85;8.57;;;7.00;55.80;;;;;;5003926;28;20050;-71
2022/03/12 01:43:48;;;;;;;17.33;8.07;;;7.00;55.50;;;;;;5005320;28;20049;-71
2022/03/12 01:46:14;;;;;;;11.13;7.68;;;7.00;55.30;;;;;;4999444;28;20057;-71
2022/03/12 01:48:49;;;;;;;13.80;9.10;;;7.00;55.20;;;;;;4994818;28;20082;-71
2022/03/12 01:51:15;;;;;;;18.45;7.75;;;6.90;55.70;;;;;;5005578;28;20100;-71
2022/03/12 01:53:42;;;;;;;12.77;8.50;;;6.90;56.10;;;;;;4997108;28;20062;-71
2022/03/12 01:56:08;;;;;;;14.65;8.00;;;6.80;56.50;;;;;;5003997;28;20535;-71
2022/03/12 01:58:34;;;;;;;12.68;9.02;;;6.80;56.50;;;;;;4985875;28;20038;-71
2022/03/12 02:01:00;;;;;;;14.10;9.48;;;6.80;56.80;;;;;;5000544;28;20047;-71
2022/03/12 02:03:28;;;;;;;14.77;8.27;;;6.80;56.90;;;;;;4994324;28;20550;-71
2022/03/12 02:05:55;;;;;;;12.40;8.88;;;6.80;56.60;;;;;;5004586;28;20058;-71
2022/03/12 02:08:21;;;;;;;12.82;8.95;;;6.70;57.00;;;;;;5007495;28;20053;-71
2022/03/12 02:10:49;;;;;;;14.13;8.65;;;6.80;57.00;;;;;;5004893;28;20050;-71
2022/03/12 02:13:15;;;;;;;14.30;8.88;;;6.70;57.00;;;;;;5005047;28;20046;-71
2022/03/12 02:15:41;;;;;;;13.40;8.27;;;6.60;57.00;;;;;;5006091;28;20042;-71
2022/03/12 02:18:07;;;;;;;14.02;9.10;;;6.70;57.10;;;;;;5005300;28;20034;-70
2022/03/12 02:20:33;;;;;;;12.27;8.50;;;6.60;57.50;;;;;;5005910;28;20658;-70
2022/03/12 02:22:59;;;;;;;12.35;9.45;;;6.60;58.10;;;;;;5006852;28;20030;-70
2022/03/12 02:25:26;;;;;;;12.95;8.88;;;6.70;57.50;;;;;;5006889;28;20050;-70
2022/03/12 02:27:51;;;;;;;10.85;8.48;;;6.70;57.50;;;;;;5005706;28;20047;-70
2022/03/12 02:30:19;;;;;;;14.15;9.25;;;6.60;57.60;;;;;;5004938;28;20065;-70
2022/03/12 02:32:45;;;;;;;14.40;8.95;;;6.60;57.70;;;;;;5006068;28;20050;-70
2022/03/12 02:35:11;;;;;;;12.27;9.57;;;6.60;57.70;;;;;;5000929;28;20624;-70
2022/03/12 02:37:44;;;;;;;12.32;9.13;;;6.60;57.80;;;;;;5005823;28;20518;-70
2022/03/12 02:40:13;;;;;;;12.80;9.02;;;6.60;58.00;;;;;;4998466;28;20055;-70
2022/03/12 02:42:39;;;;;;;13.07;9.00;;;6.50;58.60;;;;;;5004594;28;20061;-70
2022/03/12 02:45:07;;;;;;;13.77;9.80;;;6.50;58.60;;;;;;4989018;28;20570;-70
2022/03/12 02:47:35;;;;;;;11.27;8.25;;;6.40;58.70;;;;;;5000707;28;20129;-70
2022/03/12 02:50:06;;;;;;;13.75;9.48;;;6.40;58.90;;;;;;5003883;28;20062;-70
2022/03/12 02:52:38;;;;;;;11.40;7.97;;;6.30;58.90;;;;;;4998086;28;20051;-69
2022/03/12 02:55:04;;;;;;;12.55;8.75;;;6.30;59.20;;;;;;4987128;28;20054;-70
2022/03/12 02:57:30;;;;;;;13.57;8.80;;;6.30;59.40;;;;;;5003548;28;20125;-70
2022/03/12 03:00:06;;;;;;;13.90;9.18;;;6.30;59.40;;;;;;4986894;28;20050;-70
2022/03/12 03:02:39;;;;;;;12.30;8.48;;;6.30;59.40;;;;;;5004086;28;20081;-70
2022/03/12 03:05:17;;;;;;;14.80;10.38;;;6.40;59.10;;;;;;5004450;28;20510;-70
2022/03/12 03:07:46;;;;;;;12.07;8.90;;;6.40;59.10;;;;;;4983581;28;20376;-69
2022/03/12 03:10:35;;;;;;;28.98;9.18;;;6.50;58.20;;;;;;5005344;28;20096;-70
2022/03/12 03:13:16;;;;;;;12.13;9.00;;;6.60;58.50;;;;;;5003468;28;20062;-69
2022/03/12 03:16:10;;;;;;;11.98;8.65;;;6.50;58.60;;;;;;5003898;28;20058;-70
2022/03/12 03:18:39;;;;;;;12.82;9.07;;;6.50;59.10;;;;;;5004932;28;20049;-70
2022/03/12 03:21:12;;;;;;;12.32;8.75;;;6.40;59.10;;;;;;5004849;28;20405;-69
2022/03/12 03:23:38;;;;;;;10.73;7.80;;;6.30;59.50;;;;;;5004231;28;20054;-70
2022/03/12 03:26:05;;;;;;;11.85;8.57;;;6.30;60.00;;;;;;5004604;28;20077;-69
2022/03/12 03:28:30;;;;;;;10.93;7.57;;;6.30;59.90;;;;;;5003661;28;20050;-69
2022/03/12 03:30:56;;;;;;;13.07;8.48;;;6.30;60.10;;;;;;5004601;28;20057;-69
2022/03/12 03:33:23;;;;;;;13.65;9.00;;;6.40;60.30;;;;;;5000357;28;20050;-69
2022/03/12 03:35:50;;;;;;;11.68;8.90;;;6.30;60.30;;;;;;4997033;28;20128;-70
2022/03/12 03:38:16;;;;;;;12.50;8.15;;;6.40;60.70;;;;;;5003733;28;20042;-70
2022/03/12 03:40:43;;;;;;;15.73;8.18;;;6.40;60.90;;;;;;4991758;28;20053;-70
2022/03/12 03:43:15;;;;;;;10.60;8.00;;;6.40;60.60;;;;;;4975657;28;20476;-69
2022/03/12 03:45:47;;;;;;;15.07;7.97;;;6.30;60.80;;;;;;4981840;28;20038;-70
2022/03/12 03:48:15;;;;;;;11.35;7.45;;;6.40;60.90;;;;;;4994032;28;20049;-70
2022/03/12 03:50:42;;;;;;;11.25;8.07;;;6.30;61.10;;;;;;5004641;28;20065;-70
2022/03/12 03:53:11;;;;;;;15.00;8.18;;;6.30;61.50;;;;;;4999459;28;20054;-70
2022/03/12 03:55:38;;;;;;;11.88;7.90;;;6.20;62.00;;;;;;5005617;28;20046;-70
2022/03/12 03:58:03;;;;;;;13.25;9.20;;;6.20;62.30;;;;;;4993318;28;20050;-70
2022/03/12 04:00:31;;;;;;;11.40;8.77;;;6.20;62.80;;;;;;4997538;28;20046;-70
2022/03/12 04:03:04;;;;;;;12.55;8.18;;;6.10;63.30;;;;;;5002928;28;20348;-70
2022/03/12 04:05:39;;;;;;;12.98;8.88;;;6.10;64.10;;;;;;5004085;28;20104;-70
2022/03/12 04:08:07;;;;;;;13.43;8.27;;;5.90;64.80;;;;;;4982699;28;20045;-70
2022/03/12 04:10:34;;;;;;;12.05;8.10;;;5.90;65.20;;;;;;5002975;28;20046;-70
2022/03/12 04:13:01;;;;;;;12.95;8.55;;;5.90;66.00;;;;;;5002776;28;20046;-70
2022/03/12 04:15:27;;;;;;;13.82;7.60;;;5.90;66.80;;;;;;5004309;28;20065;-70
2022/03/12 04:17:53;;;;;;;12.07;7.97;;;5.80;66.40;;;;;;5004388;28;20046;-70
2022/03/12 04:20:21;;;;;;;12.10;7.75;;;5.80;67.00;;;;;;5004401;28;20049;-70
2022/03/12 04:22:48;;;;;;;12.93;7.97;;;5.90;67.70;;;;;;5005470;28;20118;-70
2022/03/12 04:25:15;;;;;;;14.48;8.70;;;5.90;67.00;;;;;;5003475;28;20046;-70
2022/03/12 04:27:44;;;;;;;10.85;7.80;;;5.90;66.80;;;;;;5003147;28;20097;-70
2022/03/12 04:30:16;;;;;;;9.57;7.43;;;5.80;67.80;;;;;;5002614;28;20089;-70
2022/03/12 04:32:42;;;;;;;15.07;8.50;;;5.80;67.90;;;;;;5004279;28;20051;-70
2022/03/12 04:35:09;;;;;;;13.60;7.93;;;5.80;68.40;;;;;;5001573;28;20051;-70
2022/03/12 04:37:36;;;;;;;11.98;8.32;;;5.80;67.90;;;;;;5003474;28;20150;-70
2022/03/12 04:40:11;;;;;;;13.07;7.70;;;5.80;67.60;;;;;;5001027;28;20419;-71
2022/03/12 04:42:39;;;;;;;12.55;8.52;;;5.80;67.90;;;;;;5003851;28;20047;-71
2022/03/12 04:45:09;;;;;;;11.10;8.10;;;5.80;67.90;;;;;;4996176;28;20047;-71
2022/03/12 04:47:35;;;;;;;13.10;8.07;;;5.80;67.70;;;;;;5002975;28;20042;-71
2022/03/12 04:50:02;;;;;;;9.52;7.10;;;5.80;67.80;;;;;;5003499;28;20301;-71
2022/03/12 04:52:29;;;;;;;11.57;7.80;;;5.70;68.80;;;;;;4997506;28;20090;-72
2022/03/12 04:54:56;;;;;;;13.18;8.15;;;5.70;68.10;;;;;;5000746;28;20056;-72
2022/03/12 04:57:22;;;;;;;10.73;7.82;;;5.70;68.50;;;;;;4996298;28;20474;-72
2022/03/12 04:59:48;;;;;;;12.68;7.95;;;5.70;68.90;;;;;;4988127;28;20054;-72
2022/03/12 05:02:14;;;;;;;10.95;8.27;;;5.70;68.80;;;;;;5004983;28;20130;-71
2022/03/12 05:04:40;;;;;;;10.85;7.35;;;5.70;68.30;;;;;;5002617;28;20050;-72
2022/03/12 05:07:07;;;;;;;10.10;7.60;;;5.60;68.30;;;;;;5004111;28;20077;-70
2022/03/12 05:09:33;;;;;;;11.52;7.47;;;5.60;68.10;;;;;;5002404;28;20050;-70
2022/03/12 05:12:04;;;;;;;12.52;7.32;;;5.60;68.40;;;;;;5003566;28;20042;-69
2022/03/12 05:14:29;;;;;;;11.23;7.20;;;5.60;68.30;;;;;;5005625;28;20046;-70
2022/03/12 05:16:55;;;;;;;12.20;8.07;;;5.60;67.80;;;;;;5006623;28;20046;-70
2022/03/12 05:19:21;;;;;;;10.52;6.93;;;5.60;67.50;;;;;;5008206;28;20046;-70
2022/03/12 05:21:47;;;;;;;12.15;7.70;;;5.60;67.10;;;;;;5006659;28;20046;-70
2022/03/12 05:24:14;;;;;;;12.27;8.25;;;5.50;67.20;;;;;;5005625;28;20046;-70
2022/03/12 05:26:40;;;;;;;10.20;7.72;;;5.80;65.40;;;;;;5005968;28;20418;-70
2022/03/12 05:29:06;;;;;;;11.30;7.57;;;5.90;65.10;;;;;;5006002;28;20050;-70
2022/03/12 05:31:31;;;;;;;11.35;7.30;;;6.00;64.40;;;;;;5005954;28;20148;-70
2022/03/12 05:33:57;;;;;;;12.38;7.55;;;5.90;64.30;;;;;;5000104;28;20073;-71
2022/03/12 05:36:23;;;;;;;10.07;7.07;;;5.90;63.90;;;;;;5007258;28;20046;-71
2022/03/12 05:38:48;;;;;;;12.38;7.90;;;5.90;63.30;;;;;;4989460;28;20050;-71
2022/03/12 05:41:14;;;;;;;13.55;8.20;;;5.90;62.70;;;;;;4999237;28;20081;-71
2022/03/12 05:43:47;;;;;;;13.55;8.05;;;5.90;62.90;;;;;;4999076;28;20071;-71
2022/03/12 05:46:15;;;;;;;12.20;8.68;;;5.90;62.90;;;;;;4982890;28;20073;-70
2022/03/12 05:48:42;;;;;;;13.18;9.30;;;5.90;62.90;;;;;;5001200;28;20085;-70
2022/03/12 05:51:11;;;;;;;9.88;7.28;;;5.70;63.80;;;;;;5006971;28;20054;-70
2022/03/12 05:53:37;;;;;;;11.63;7.70;;;5.80;63.20;;;;;;5004138;28;20566;-70
2022/03/12 05:56:04;;;;;;;12.55;7.88;;;5.70;64.00;;;;;;5004702;28;20050;-71
2022/03/12 05:58:35;;;;;;;9.88;7.10;;;5.70;64.60;;;;;;4998329;28;20039;-70
2022/03/12 06:01:01;;;;;;;13.60;8.73;;;5.70;64.40;;;;;;5006000;28;20082;-71
2022/03/12 06:03:27;;;;;;;12.23;7.43;;;5.70;64.20;;;;;;5005025;28;20038;-71
2022/03/12 06:05:58;;;;;;;11.23;7.55;;;5.70;64.50;;;;;;5005817;28;20072;-71
2022/03/12 06:08:25;;;;;;;11.23;7.38;;;5.70;64.20;;;;;;5006353;28;20545;-71
2022/03/12 06:10:52;;;;;;;10.23;7.25;;;5.70;64.50;;;;;;5005450;28;20054;-71
2022/03/12 06:13:28;;;;;;;10.07;7.32;;;5.60;65.10;;;;;;5005361;28;20050;-71
2022/03/12 06:16:02;;;;;;;13.90;7.45;;;5.50;65.30;;;;;;4989521;28;20050;-71
2022/03/12 06:18:33;;;;;;;11.80;7.45;;;5.60;65.70;;;;;;5004940;28;20046;-71
2022/03/12 06:21:00;;;;;;;12.88;8.25;;;5.50;66.10;;;;;;5007168;28;20117;-70
2022/03/12 06:23:28;;;;;;;10.27;7.70;;;5.60;66.50;;;;;;5005612;28;20053;-70
2022/03/12 06:25:54;;;;;;;12.90;8.43;;;5.60;66.10;;;;;;5005755;28;20088;-71
2022/03/12 06:28:21;;;;;;;11.10;7.80;;;5.60;66.40;;;;;;5005908;28;20098;-70
2022/03/12 06:30:48;;;;;;;10.63;6.95;;;5.60;66.10;;;;;;5005012;28;20194;-71
2022/03/12 06:33:18;;;;;;;10.55;7.05;;;5.80;65.90;;;;;;5003827;28;20101;-70
2022/03/12 06:35:45;;;;;;;12.57;7.97;;;5.80;65.60;;;;;;4997241;28;20058;-70
2022/03/12 06:38:11;;;;;;;10.18;6.97;;;5.80;65.80;;;;;;5005699;28;20042;-71
2022/03/12 06:40:37;;;;;;;12.70;7.57;;;5.80;65.50;;;;;;4994031;28;20046;-71
2022/03/12 06:43:17;;;;;;;11.35;8.52;;;5.80;65.90;;;;;;4987715;28;20106;-70
2022/03/12 06:45:42;;;;;;;10.95;8.00;;;5.80;66.20;;;;;;4998290;28;20177;-71
2022/03/12 06:48:08;;;;;;;13.15;7.68;;;5.90;66.50;;;;;;5004519;28;20089;-71
2022/03/12 06:50:34;;;;;;;12.02;7.45;;;6.10;65.60;;;;;;5005812;28;20061;-70
2022/03/12 06:53:00;;;;;;;13.70;7.28;;;6.00;65.70;;;;;;5000141;28;20046;-70
2022/03/12 06:55:29;;;;;;;10.60;7.30;;;6.00;65.70;;;;;;5004103;28;20058;-71
2022/03/12 06:57:55;;;;;;;12.07;8.35;;;6.20;64.90;;;;;;4976696;28;20049;-71
2022/03/12 07:00:28;;;;;;;11.43;7.03;;;6.20;64.90;;;;;;4996681;28;20074;-70
2022/03/12 07:02:55;;;;;;;13.82;7.57;;;6.30;64.10;;;;;;5004566;28;20052;-70
2022/03/12 07:05:22;;;;;;;11.27;7.47;;;6.30;64.60;;;;;;5004849;28;20111;-71
2022/03/12 07:07:49;;;;;;;10.32;7.50;;;6.30;64.60;;;;;;5006842;28;20077;-71
2022/03/12 07:10:16;;;;;;;11.35;8.00;;;6.30;64.50;;;;;;5006383;28;20414;-71
2022/03/12 07:12:44;;;;;;;10.68;8.07;;;6.30;64.60;;;;;;5005830;28;20126;-71
2022/03/12 07:15:15;;;;;;;11.40;7.68;;;6.30;64.80;;;;;;5005680;28;20047;-70
2022/03/12 07:17:41;;;;;;;;;;;6.30;65.20;;;;;;5007080;28;20043;-71
2022/03/12 07:20:09;;;;;;;11.15;7.60;;;6.20;65.70;;;;;;5006249;28;20322;-71
2022/03/12 07:22:35;;;;;;;11.50;7.25;;;6.30;66.00;;;;;;4978798;28;20052;-71
2022/03/12 07:25:01;;;;;;;11.38;7.28;;;6.30;66.50;;;;;;5004786;28;20125;-71
2022/03/12 07:27:27;;;;;;;10.23;7.55;;;6.40;66.50;;;;;;4977733;28;20042;-71
2022/03/12 07:29:53;;;;;;;12.07;7.40;;;6.40;66.70;;;;;;5003852;28;20052;-71
2022/03/12 07:32:20;;;;;;;11.65;7.32;;;6.60;65.80;;;;;;5003389;28;20050;-71
2022/03/12 07:34:47;;;;;;;10.60;7.38;;;6.40;66.40;;;;;;4991365;28;20058;-71
2022/03/12 07:37:13;;;;;;;12.68;7.57;;;6.50;66.40;;;;;;5005044;28;20120;-71
2022/03/12 07:39:39;;;;;;;11.18;7.28;;;6.50;66.30;;;;;;5001816;28;20046;-70
2022/03/12 07:42:05;;;;;;;10.00;7.35;;;6.50;66.30;;;;;;4994392;28;20046;-71
2022/03/12 07:44:31;;;;;;;9.25;6.90;;;6.50;66.50;;;;;;4998684;28;20073;-70
2022/03/12 07:46:57;;;;;;;12.40;7.90;;;6.60;66.10;;;;;;4997841;28;20058;-70
2022/03/12 07:49:25;;;;;;;13.00;7.90;;;6.60;67.40;;;;;;5000249;28;20050;-71
2022/03/12 07:51:51;;;;;;;10.93;8.00;;;6.60;66.70;;;;;;5001359;28;20089;-71
2022/03/12 07:54:17;;;;;;;10.93;7.05;;;6.80;65.80;;;;;;4983951;28;20054;-74
2022/03/12 07:56:43;;;;;;;12.10;7.30;;;6.80;66.30;;;;;;4991103;28;20046;-71
2022/03/12 07:59:10;;;;;;;11.45;8.10;;;6.80;66.90;;;;;;4983676;28;20043;-70
2022/03/12 08:01:37;;;;;;;10.80;7.57;;;6.90;67.20;;;;;;4986806;28;20056;-71
2022/03/12 08:04:03;;;;;;;13.30;7.00;;;6.90;67.10;;;;;;5002106;28;20042;-69
2022/03/12 08:06:30;;;;;;;11.60;7.78;;;7.00;67.60;;;;;;5002709;28;20122;-69
2022/03/12 08:08:57;;;;;;;14.00;8.52;;;7.10;67.20;;;;;;5004219;28;20050;-70
2022/03/12 08:11:28;;;;;;;11.45;8.05;;;7.20;66.70;;;;;;5004205;28;20077;-70
2022/03/12 08:14:04;;;;;;;10.75;8.30;;;7.30;67.00;;;;;;4986907;28;20109;-70
2022/03/12 08:16:33;;;;;;;12.35;8.10;;;7.30;66.40;;;;;;5005321;28;20101;-71
2022/03/12 08:19:01;;;;;;;17.40;8.05;;;7.50;66.00;;;;;;5002591;28;20082;-71
2022/03/12 08:21:27;;;;;;;10.80;8.15;;;7.60;65.70;;;;;;4987070;28;20499;-70
2022/03/12 08:23:53;;;;;;;13.27;8.15;;;7.60;66.30;;;;;;5002929;28;20069;-71
2022/03/12 08:26:19;;;;;;;11.50;7.93;;;7.70;66.00;;;;;;4987679;28;20081;-71
2022/03/12 08:28:46;;;;;;;10.10;7.40;;;7.70;66.00;;;;;;5002930;28;20084;-71
2022/03/12 08:31:13;;;;;;;11.57;7.90;;;7.90;65.60;;;;;;5002787;28;20053;-71
2022/03/12 08:33:39;;;;;;;11.98;8.40;;;8.00;66.20;;;;;;5001214;28;20051;-70
2022/03/12 08:36:06;;;;;;;16.20;8.48;;;7.90;65.80;;;;;;5002743;28;20056;-70
2022/03/12 08:38:34;;;;;;;11.45;8.38;;;8.00;66.50;;;;;;5004064;28;20082;-70
2022/03/12 08:41:01;;;;;;;10.45;8.25;;;8.10;65.80;;;;;;4998873;28;20042;-70
2022/03/12 08:43:26;;;;;;;11.32;8.57;;;8.30;65.50;;;;;;4999646;28;20050;-69
2022/03/12 08:45:52;;;;;;;11.55;8.95;;;8.20;67.10;;;;;;4994269;28;20053;-71
2022/03/12 08:48:18;;;;;;;13.23;8.35;;;8.30;66.70;;;;;;4999980;28;20085;-70
2022/03/12 08:50:47;;;;;;;14.07;9.10;;;8.40;67.50;;;;;;5006370;28;20047;-70
2022/03/12 08:53:15;;;;;;;14.52;8.50;;;8.50;67.90;;;;;;5005210;28;20054;-69
2022/03/12 08:55:41;;;;;;;13.70;8.63;;;8.50;67.60;;;;;;4990548;28;20102;-71
2022/03/12 08:58:07;;;;;;;12.65;8.75;;;8.70;67.30;;;;;;5001136;28;20072;-71
2022/03/12 09:00:34;;;;;;;11.10;7.90;;;8.90;66.30;;;;;;4968180;28;20500;-69
2022/03/12 09:03:00;;;;;;;12.45;8.30;;;9.00;66.30;;;;;;4974718;28;20047;-67
2022/03/12 09:05:26;;;;;;;12.48;8.70;;;9.20;65.80;;;;;;5006891;28;20050;-67
2022/03/12 09:07:52;;;;;;;11.95;8.68;;;9.20;65.90;;;;;;5005832;28;20046;-67
2022/03/12 09:10:20;;;;;;;13.40;8.10;;;9.30;65.90;;;;;;5007286;28;20051;-67
2022/03/12 09:12:46;;;;;;;11.85;8.75;;;9.70;64.40;;;;;;5006314;28;20034;-67
2022/03/12 09:15:13;;;;;;;11.73;8.63;;;9.50;65.30;;;;;;5006179;28;20096;-67
2022/03/12 09:17:39;;;;;;;12.20;8.60;;;9.70;65.30;;;;;;5007416;28;20415;-67
2022/03/12 09:20:07;;;;;;;14.85;8.70;;;9.80;65.30;;;;;;5005708;28;20041;-67
2022/03/12 09:22:32;;;;;;;13.48;9.48;;;9.90;67.00;;;;;;5005970;28;20459;-68
2022/03/12 09:25:02;;;;;;;14.45;9.85;;;10.20;65.50;;;;;;5007189;28;20046;-69
2022/03/12 09:27:28;;;;;;;12.95;9.40;;;10.30;66.60;;;;;;5005437;28;20096;-67
2022/03/12 09:29:54;;;;;;;12.48;8.30;;;10.40;65.80;;;;;;5005510;28;20065;-68
2022/03/12 09:32:20;;;;;;;12.90;8.90;;;10.40;66.20;;;;;;5007179;28;20046;-67
2022/03/12 09:34:46;;;;;;;12.30;8.88;;;10.60;66.40;;;;;;4993301;28;20434;-67
2022/03/12 09:37:12;;;;;;;14.57;9.73;;;10.80;65.70;;;;;;5007091;28;20094;-67
2022/03/12 09:39:38;;;;;;;15.63;8.55;;;10.80;66.50;;;;;;5000584;28;20084;-71
2022/03/12 09:42:05;;;;;;;11.65;7.40;;;11.00;68.00;;;;;;5003549;28;20081;-66
2022/03/12 09:44:30;;;;;;;13.73;8.75;;;11.10;67.60;;;;;;5002446;28;20042;-66
2022/03/12 09:46:56;;;;;;;12.82;9.15;;;11.30;68.50;;;;;;5005931;28;20054;-65
2022/03/12 09:49:22;;;;;;;12.73;8.32;;;11.30;67.90;;;;;;5004609;28;20451;-66
2022/03/12 09:51:48;;;;;;;15.27;9.40;;;11.40;69.70;;;;;;5004506;28;20062;-66
2022/03/12 09:54:15;;;;;;;13.32;8.85;;;11.50;71.60;;;;;;5003830;28;20129;-66
2022/03/12 09:56:42;;;;;;;11.50;7.70;;;11.80;70.60;;;;;;4999466;28;20104;-67
2022/03/12 09:59:07;;;;;;;11.70;8.20;;;11.90;69.70;;;;;;4999355;28;20072;-67
2022/03/12 10:01:33;;;;;;;12.25;8.90;;;12.00;70.90;;;;;;5006508;28;20086;-67
2022/03/12 10:03:59;;;;;;;13.00;8.68;;;12.20;71.50;;;;;;5005194;28;20044;-66
2022/03/12 10:06:25;;;;;;;13.25;8.98;;;12.50;71.70;;;;;;4965183;28;20066;-66
2022/03/12 10:08:52;;;;;;;14.55;9.80;;;12.70;71.20;;;;;;4998985;28;20042;-66
2022/03/12 10:11:18;;;;;;;12.25;9.00;;;12.80;71.70;;;;;;5000718;28;20058;-66
2022/03/12 10:13:44;;;;;;;12.77;9.05;;;12.70;71.60;;;;;;4999743;28;20074;-66
2022/03/12 10:16:11;;;;;;;12.70;8.38;;;12.80;72.20;;;;;;5003050;28;20077;-66
2022/03/12 10:18:36;;;;;;;15.18;9.23;;;13.00;72.30;;;;;;5007293;28;20049;-67
2022/03/12 10:21:03;;;;;;;10.93;8.88;;;12.90;73.70;;;;;;5003179;28;20096;-66
2022/03/12 10:23:29;;;;;;;12.88;9.25;;;12.90;74.00;;;;;;4989907;28;20121;-67
2022/03/12 10:25:55;;;;;;;16.58;8.77;;;13.00;77.60;;;;;;5003975;28;20515;-66
2022/03/12 10:28:21;;;;;;;14.23;8.60;;;13.10;76.60;;;;;;5005968;28;20076;-66
2022/03/12 10:30:46;;;;;;;12.38;8.98;;;13.40;76.10;;;;;;5002556;28;20085;-67
2022/03/12 10:33:23;;;;;;;12.73;9.20;;;13.30;77.30;;;;;;5003555;28;20065;-67
2022/03/12 10:35:50;;;;;;;12.85;9.27;;;13.20;79.20;;;;;;4997616;28;20634;-66
2022/03/12 10:38:17;;;;;;;11.30;7.50;;;13.20;80.50;;;;;;5003050;28;20054;-66
2022/03/12 10:40:44;;;;;;;11.50;8.05;;;13.50;81.50;;;;;;4992866;28;20105;-67
2022/03/12 10:43:13;;;;;;;11.07;8.75;;;13.40;84.20;;;;;;4995639;28;20054;-67
2022/03/12 10:45:48;;;;;;;13.63;8.88;;;13.60;84.90;;;;;;4995900;28;20525;-66
2022/03/12 10:48:19;;;;;;;12.48;9.00;;;13.70;86.90;;;;;;4999869;28;20078;-66
2022/03/12 10:50:48;;;;;;;12.70;9.07;;;13.40;90.60;;;;;;5005765;28;20058;-66
2022/03/12 10:53:15;;;;;;;14.60;8.57;;;13.20;93.10;;;;;;4996784;28;20050;-67
2022/03/12 10:55:50;;;;;;;11.57;8.90;;;13.50;94.70;;;;;;5003441;28;20514;-67
2022/03/12 10:58:26;;;;;;;13.70;9.35;;;13.70;93.20;;;;;;4990525;28;20085;-68
2022/03/12 11:00:59;;;;;;;12.30;9.38;;;13.60;94.90;;;;;;4998011;28;20057;-73
2022/03/12 11:03:33;;;;;;;13.55;9.63;;;13.70;95.10;;;;;;5005623;28;20048;-68
2022/03/12 11:06:00;;;;;;;11.70;7.80;;;13.80;95.10;;;;;;4982542;28;20145;-68
2022/03/12 11:08:31;;;;;;;13.00;10.00;;;14.00;93.90;;;;;;5005107;28;20133;-68
2022/03/12 11:10:59;;;;;;;14.20;9.85;;;14.10;93.80;;;;;;5003153;28;20053;-67
2022/03/12 11:13:39;;;;;;;14.82;9.65;;;13.70;94.80;;;;;;5004694;28;20499;-67
2022/03/12 11:16:06;;;;;;;15.50;9.25;;;14.10;94.00;;;;;;5003466;28;20054;-67
2022/03/12 11:18:33;;;;;;;15.82;9.93;;;14.00;94.10;;;;;;5003443;28;20045;-67
2022/03/12 11:20:58;;;;;;;13.38;9.40;;;13.90;94.90;;;;;;4956140;28;20242;-67
2022/03/12 11:23:29;;;;;;;13.13;9.05;;;13.70;96.60;;;;;;4996875;28;20043;-66
2022/03/12 11:25:58;;;;;;;14.75;9.90;;;13.80;97.00;;;;;;4993926;28;20069;-67
2022/03/12 11:28:25;;;;;;;12.88;9.70;;;13.80;97.00;;;;;;5004094;28;20057;-67
2022/03/12 11:30:51;;;;;;;12.73;9.27;;;13.90;97.20;;;;;;4985395;28;20080;-66
2022/03/12 11:33:18;;;;;;;13.07;10.57;;;13.80;99.20;;;;;;4983533;28;20229;-72
2022/03/12 11:35:45;;;;;;;12.90;9.77;;;13.90;98.50;;;;;;4944842;28;20050;-72
2022/03/12 11:38:20;;;;;;;15.45;9.88;;;14.20;97.80;;;;;;4965716;28;20554;-72
2022/03/12 11:40:53;;;;;;;13.68;10.43;;;14.40;97.50;;;;;;4954201;28;20058;-71
2022/03/12 11:43:31;;;;;;;12.57;9.27;;;14.50;97.20;;;;;;4990046;28;20046;-71
2022/03/12 11:45:59;;;;;;;13.75;9.35;;;14.70;97.80;;;;;;4982411;28;20461;-71
2022/03/12 11:48:29;;;;;;;15.60;9.68;;;14.80;96.80;;;;;;4993166;28;20038;-71
2022/03/12 11:50:55;;;;;;;13.27;10.05;;;14.50;98.60;;;;;;4989051;28;20114;-71
2022/03/12 11:53:21;;;;;;;13.07;8.68;;;14.70;98.90;;;;;;4983870;28;20100;-71
2022/03/12 11:55:51;;;;;;;13.05;9.77;;;15.00;97.20;;;;;;4996788;28;20321;-71
2022/03/12 11:58:18;;;;;;;14.25;9.70;;;15.10;96.50;;;;;;4980329;28;20062;-71
2022/03/12 12:00:46;;;;;;;11.88;8.85;;;15.10;96.90;;;;;;4987511;28;20072;-71
2022/03/12 12:03:16;;;;;;;12.88;8.70;;;15.00;96.90;;;;;;4985307;28;20048;-71
2022/03/12 12:05:44;;;;;;;14.02;10.05;;;14.90;97.00;;;;;;4966357;28;20054;-71
2022/03/12 12:08:14;;;;;;;13.88;10.45;;;14.90;97.80;;;;;;4972549;28;20117;-71
2022/03/12 12:10:43;;;;;;;11.80;8.52;;;14.80;99.10;;;;;;4994357;28;20047;-71
2022/03/12 12:13:13;;;;;;;10.65;8.40;;;14.80;98.60;;;;;;4983705;28;20050;-71
2022/03/12 12:15:41;;;;;;;11.27;7.82;;;14.80;99.40;;;;;;4999810;28;20050;-71
2022/03/12 12:18:09;;;;;;;13.10;8.30;;;15.20;98.00;;;;;;4987080;28;20097;-71
2022/03/12 12:20:36;;;;;;;10.93;8.20;;;15.20;97.80;;;;;;4979021;28;20047;-70
2022/03/12 12:23:03;;;;;;;11.23;8.13;;;15.30;98.50;;;;;;4955072;28;20414;-70
2022/03/12 12:25:34;;;;;;;11.35;8.07;;;15.30;98.70;;;;;;5002021;28;20057;-70
2022/03/12 12:28:00;;;;;;;10.90;8.25;;;14.70;99.90;;;;;;4995086;28;20141;-70
2022/03/12 12:30:42;;;;;;;14.35;9.80;;;14.60;99.90;;;;;;4999526;28;20054;-70
2022/03/12 12:33:24;;;;;;;12.32;9.23;;;15.00;99.90;;;;;;4990493;28;20058;-70
2022/03/12 12:35:52;;;;;;;12.90;9.23;;;14.90;99.90;;;;;;4970332;28;20143;-70
2022/03/12 12:38:20;;;;;;;10.23;8.77;;;15.00;99.90;;;;;;4991993;28;20084;-70
2022/03/12 12:40:51;;;;;;;13.18;8.68;;;15.30;99.90;;;;;;4997071;28;20057;-70
2022/03/12 12:43:46;;;;;;;10.77;8.38;;;15.40;99.60;;;;;;4958547;28;20054;-70
2022/03/12 12:46:19;;;;;;;12.40;8.98;;;15.70;99.30;;;;;;4971795;28;20050;-71
2022/03/12 12:48:51;;;;;;;12.27;8.18;;;16.20;97.60;;;;;;4998683;28;20263;-71